Time;durP1;ratioP1;P1;durP2;ratioP2;P2;SDS_P1;SDS_P2;PMS_P1;PMS_P2;Temp;Humidity;BMP_temperature;BMP_pressure;BME280_temperature;BME280_humidity;BME280_pressure;Samples;Min_cycle;Max_cycle;Signal;HPM_P1;HPM_P2
2023/01/23 00:00:57;;;;;;;2.75;1.23;;;;;;;16.40;58.34;103720.34;4888764;29;20042;-88
2023/01/23 00:03:22;;;;;;;2.78;1.50;;;;;;;16.40;58.51;103712.56;4890115;29;20083;-86
2023/01/23 00:06:03;;;;;;;5.38;1.70;;;;;;;16.40;58.41;103712.56;4890084;29;20049;-87
2023/01/23 00:08:29;;;;;;;3.45;1.63;;;;;;;16.40;58.33;103706.50;4889921;29;20025;-87
2023/01/23 00:11:00;;;;;;;2.83;1.50;;;;;;;16.40;58.51;103706.50;4890024;29;20029;-87
2023/01/23 00:13:26;;;;;;;3.72;1.52;;;;;;;16.39;58.40;103702.97;4889801;29;20013;-88
2023/01/23 00:15:52;;;;;;;2.45;1.40;;;;;;;16.39;58.13;103713.38;4889968;29;20045;-85
2023/01/23 00:18:20;;;;;;;2.47;1.45;;;;;;;16.39;58.13;103700.38;4889869;29;20053;-87
2023/01/23 00:20:46;;;;;;;3.05;1.13;;;;;;;16.39;58.27;103681.31;5312846;24;21252;-87
2023/01/23 00:23:11;;;;;;;3.10;1.35;;;;;;;16.39;58.23;103686.50;4863506;29;20097;-86
2023/01/23 00:25:37;;;;;;;2.60;1.30;;;;;;;16.38;58.43;103689.94;4862419;29;20041;-87
2023/01/23 00:28:03;;;;;;;2.67;1.48;;;;;;;16.37;58.11;103689.03;4852042;29;20045;-80
2023/01/23 00:30:28;;;;;;;2.78;1.30;;;;;;;16.38;58.07;103692.53;4834186;29;20041;-80
2023/01/23 00:32:54;;;;;;;3.58;1.40;;;;;;;16.38;57.92;103688.22;4819066;29;20041;-77
2023/01/23 00:35:20;;;;;;;2.45;1.38;;;;;;;16.37;57.99;103686.44;4832690;29;20121;-79
2023/01/23 00:37:45;;;;;;;1.73;1.33;;;;;;;16.36;57.76;103674.28;4833763;29;20064;-79
2023/01/23 00:40:12;;;;;;;2.55;1.35;;;;;;;16.38;57.95;103663.94;4833488;29;20050;-78
2023/01/23 00:42:37;;;;;;;2.40;1.30;;;;;;;16.36;57.79;103669.06;4831953;29;20628;-80
2023/01/23 00:45:03;;;;;;;2.72;1.30;;;;;;;16.37;57.68;103673.44;4832996;29;20042;-80
2023/01/23 00:47:28;;;;;;;2.95;1.40;;;;;;;16.36;57.70;103673.38;4833020;29;20057;-79
2023/01/23 00:49:56;;;;;;;2.60;1.45;;;;;;;16.36;57.80;103671.69;4832798;29;20041;-79
2023/01/23 00:52:22;;;;;;;2.17;1.33;;;;;;;16.36;57.97;103676.00;4817974;29;20045;-79
2023/01/23 00:54:47;;;;;;;3.60;1.40;;;;;;;16.36;57.62;103676.00;4829415;29;20038;-79
2023/01/23 00:57:12;;;;;;;2.78;1.30;;;;;;;16.35;57.50;103672.50;4813376;29;20043;-79
2023/01/23 00:59:38;;;;;;;2.45;1.20;;;;;;;16.35;57.62;103672.50;4813415;29;20383;-78
2023/01/23 01:02:03;;;;;;;1.67;1.20;;;;;;;16.35;57.33;103667.31;4828783;29;20475;-78
2023/01/23 01:04:29;;;;;;;2.47;1.23;;;;;;;16.36;57.56;103668.19;4813304;29;20474;-79
2023/01/23 01:06:54;;;;;;;2.28;1.15;;;;;;;16.35;57.52;103664.72;4798144;29;20070;-79
2023/01/23 01:09:20;;;;;;;2.40;1.40;;;;;;;16.36;57.46;103673.38;4843913;29;20160;-79
2023/01/23 01:11:46;;;;;;;2.10;1.42;;;;;;;16.36;57.67;103668.19;4828484;29;20042;-80
2023/01/23 01:14:11;;;;;;;2.60;1.42;;;;;;;16.35;57.19;103662.13;4813496;29;20034;-80
2023/01/23 01:16:36;;;;;;;1.80;1.10;;;;;;;16.36;57.36;103665.59;4827749;29;20161;-78
2023/01/23 01:19:04;;;;;;;1.83;1.30;;;;;;;16.35;57.31;103671.59;4812597;29;20044;-80
2023/01/23 01:21:29;;;;;;;2.20;1.20;;;;;;;16.35;57.39;103682.00;4843253;29;20046;-79
2023/01/23 01:23:55;;;;;;;1.73;1.10;;;;;;;16.34;57.33;103675.91;4827994;29;20080;-80
2023/01/23 01:26:21;;;;;;;1.85;1.20;;;;;;;16.34;57.41;103675.03;4812305;29;20069;-79
2023/01/23 01:28:47;;;;;;;3.13;1.45;;;;;;;16.34;57.27;103688.03;4842563;29;20476;-79
2023/01/23 01:31:15;;;;;;;2.15;1.17;;;;;;;16.34;57.32;103682.84;4797330;29;20039;-80
2023/01/23 01:33:42;;;;;;;2.45;1.33;;;;;;;16.34;57.13;103686.31;4827530;29;20130;-78
2023/01/23 01:36:14;;;;;;;2.72;1.08;;;;;;;16.34;57.22;103685.44;4827509;29;20125;-78
2023/01/23 01:38:40;;;;;;;2.78;1.50;;;;;;;16.35;57.01;103692.38;4827189;29;20105;-80
2023/01/23 01:41:06;;;;;;;2.97;1.40;;;;;;;16.35;57.04;103692.38;4827340;29;20503;-81
2023/01/23 01:43:32;;;;;;;3.50;1.30;;;;;;;16.35;57.08;103695.91;4811862;29;20042;-80
2023/01/23 01:46:13;;;;;;;1.75;1.10;;;;;;;16.36;57.15;103701.97;4811944;29;20046;-80
2023/01/23 01:49:11;;;;;;;3.60;1.25;;;;;;;16.36;57.04;103695.06;4842023;29;20133;-80
2023/01/23 01:51:44;;;;;;;2.40;1.15;;;;;;;16.37;56.98;103698.53;4826587;29;20118;-80
2023/01/23 01:54:15;;;;;;;2.75;1.25;;;;;;;16.38;56.97;103703.81;4842104;29;20478;-80
2023/01/23 02:01:48;;;;;;;2.08;1.08;;;;;;;16.39;56.75;103686.50;5089377;23;20079;-84
2023/01/23 02:04:16;;;;;;;1.95;1.13;;;;;;;16.42;56.75;103700.53;4865458;29;20022;-86
2023/01/23 02:09:20;;;;;;;1.92;1.17;;;;;;;16.42;56.61;103710.03;5415696;23;20066;-85
2023/01/23 02:12:17;;;;;;;2.03;1.08;;;;;;;16.43;56.86;103706.59;5649130;23;20028;31
2023/01/23 02:14:45;;;;;;;2.00;1.13;;;;;;;16.43;56.84;103707.47;4826069;29;20084;-86
2023/01/23 02:17:11;;;;;;;2.63;1.08;;;;;;;16.44;56.71;103711.00;4810106;29;20035;-86
2023/01/23 02:19:53;;;;;;;1.77;0.88;;;;;;;16.44;56.51;103708.38;4809732;29;20069;-86
2023/01/23 02:27:43;;;;;;;2.10;1.10;;;;;;;16.45;56.62;103708.44;4845780;29;20068;-87
2023/01/23 02:30:10;;;;;;;1.60;1.10;;;;;;;16.47;56.74;103711.09;4828835;29;20545;-86
2023/01/23 02:37:47;;;;;;;1.30;0.90;;;;;;;16.49;56.70;103711.16;5300526;23;20061;-79
2023/01/23 02:40:13;;;;;;;1.33;1.05;;;;;;;16.47;56.57;103713.69;4844007;29;20129;-79
2023/01/23 02:42:43;;;;;;;2.08;1.00;;;;;;;16.48;56.67;103705.06;4845017;29;20557;-79
2023/01/23 02:45:09;;;;;;;1.23;0.90;;;;;;;16.49;56.53;103712.06;4843495;29;20050;-80
2023/01/23 02:47:34;;;;;;;1.73;1.02;;;;;;;16.51;56.78;103712.13;4844044;29;20034;-79
2023/01/23 02:50:00;;;;;;;2.50;1.08;;;;;;;16.50;56.54;103706.00;4843975;29;20132;-80
2023/01/23 02:52:25;;;;;;;1.48;1.08;;;;;;;16.50;56.64;103718.13;4828492;29;20042;-79
2023/01/23 03:05:27;;;;;;;2.20;1.20;;;;;;;16.51;56.69;103718.19;4953391;23;20044;-87
2023/01/23 03:07:53;;;;;;;2.88;1.10;;;;;;;16.51;56.31;103722.53;4872857;29;20049;-87
2023/01/23 03:10:21;;;;;;;2.30;1.00;;;;;;;16.52;56.40;103716.47;4872677;29;20029;-88
2023/01/23 03:12:46;;;;;;;1.25;0.90;;;;;;;16.52;56.52;103727.75;4873029;29;20030;-88
2023/01/23 03:15:12;;;;;;;1.92;1.10;;;;;;;16.53;56.76;103728.66;4857257;29;20049;-88
2023/01/23 03:17:39;;;;;;;2.05;1.10;;;;;;;16.51;56.58;103731.19;5571848;23;20132;-86
2023/01/23 03:20:06;;;;;;;1.65;0.98;;;;;;;16.53;56.46;103729.56;4889782;29;20021;-88
2023/01/23 03:22:32;;;;;;;2.65;1.10;;;;;;;16.54;56.56;103731.31;4875179;29;20414;-86
2023/01/23 03:24:57;;;;;;;2.38;1.10;;;;;;;16.53;56.51;103731.28;4888056;29;20073;-83
2023/01/23 03:27:26;;;;;;;1.60;1.00;;;;;;;16.53;56.54;103729.56;4888571;29;20432;-84
2023/01/23 03:30:32;;;;;;;1.48;0.90;;;;;;;16.54;56.36;103730.44;4887707;29;20045;-87
2023/01/23 03:43:11;;;;;;;1.52;1.00;;;;;;;16.55;56.56;103735.69;4845531;29;20038;-86
2023/01/23 03:45:37;;;;;;;1.60;1.00;;;;;;;16.54;56.27;103731.31;4832699;29;20066;-88
2023/01/23 03:48:02;;;;;;;1.23;0.80;;;;;;;16.55;56.64;103740.00;4833158;29;20026;-86
2023/01/23 03:50:28;;;;;;;1.92;1.00;;;;;;;16.55;56.38;103742.59;4831200;29;20080;-86
2023/01/23 03:52:54;;;;;;;1.85;1.08;;;;;;;16.55;56.58;103737.38;4831283;29;20042;-86
2023/01/23 04:03:05;;;;;;;1.88;1.08;;;;;;;16.56;56.55;103728.78;5147226;23;20089;-86
2023/01/23 04:05:34;;;;;;;1.25;0.85;;;;;;;16.56;56.42;103723.59;5022929;23;20077;-87
2023/01/23 04:08:00;;;;;;;1.50;0.90;;;;;;;16.55;56.29;103727.91;4884057;29;20028;-86
2023/01/23 04:10:29;;;;;;;1.25;0.90;;;;;;;16.53;56.34;103726.94;4880874;29;20045;-84
2023/01/23 04:15:32;;;;;;;1.73;0.90;;;;;;;16.53;56.36;103739.94;5001325;24;20058;-86
2023/01/23 04:18:05;;;;;;;1.30;0.80;;;;;;;16.52;56.24;103740.75;4887745;24;20120;31
2023/01/23 04:20:31;;;;;;;;;;;;;;;16.52;56.42;103739.88;4832281;29;20061;-87
2023/01/23 04:23:00;;;;;;;1.50;0.95;;;;;;;16.50;56.45;103736.31;4833780;29;19913;-87
2023/01/23 04:25:27;;;;;;;1.15;0.80;;;;;;;16.50;56.39;103739.81;4833558;29;20034;-87
2023/01/23 04:27:53;;;;;;;1.90;0.95;;;;;;;16.50;56.37;103741.53;4848200;29;20042;-88
2023/01/23 04:30:18;;;;;;;1.75;0.95;;;;;;;16.51;56.10;103751.13;4833201;29;20045;-86
2023/01/23 04:32:44;;;;;;;2.20;1.02;;;;;;;16.49;56.40;103748.44;4832818;29;20047;-87
2023/01/23 04:35:09;;;;;;;1.63;1.02;;;;;;;16.48;56.40;103749.25;4819236;29;20117;-79
2023/01/23 04:37:35;;;;;;;1.08;0.80;;;;;;;16.48;56.22;103756.16;4798325;29;20073;-79
2023/01/23 04:40:00;;;;;;;1.30;0.90;;;;;;;16.48;55.97;103750.97;4813197;29;20051;-79
2023/01/23 04:42:26;;;;;;;1.40;1.00;;;;;;;16.47;56.35;103754.41;4797801;29;20053;-79
2023/01/23 04:44:51;;;;;;;2.15;1.00;;;;;;;16.47;56.33;103755.28;4813660;29;20053;-79
2023/01/23 04:47:17;;;;;;;1.63;0.82;;;;;;;16.45;56.25;103746.53;4813609;29;20043;-80
2023/01/23 04:49:42;;;;;;;1.92;1.10;;;;;;;16.47;56.00;103749.22;4798180;29;20046;-80
2023/01/23 04:52:08;;;;;;;1.13;0.80;;;;;;;16.47;56.15;103762.22;4812902;29;20062;-80
2023/01/23 04:54:33;;;;;;;1.50;0.90;;;;;;;16.47;56.22;103763.09;4813025;29;20030;-80
2023/01/23 04:56:58;;;;;;;1.98;0.82;;;;;;;16.47;56.17;103750.09;4813235;29;20098;-80
2023/01/23 04:59:24;;;;;;;1.52;1.00;;;;;;;16.49;56.16;103756.25;4798012;29;20127;-79
2023/01/23 05:01:49;;;;;;;1.80;0.90;;;;;;;16.49;56.01;103757.97;4797762;29;20497;-79
2023/01/23 05:04:15;;;;;;;1.95;1.00;;;;;;;16.49;56.08;103771.84;4812714;29;20038;-80
2023/01/23 05:06:40;;;;;;;2.05;1.10;;;;;;;16.51;56.08;103765.00;4813139;29;20068;-79
2023/01/23 05:09:06;;;;;;;2.83;1.15;;;;;;;16.52;56.16;103773.66;4797562;29;20043;-79
2023/01/23 05:11:31;;;;;;;1.15;0.80;;;;;;;16.52;56.03;103760.66;4812489;29;20042;-79
2023/01/23 05:13:57;;;;;;;1.60;1.00;;;;;;;16.53;56.15;103772.88;4812670;29;20038;-79
2023/01/23 05:16:22;;;;;;;1.42;0.90;;;;;;;16.54;55.95;103761.63;4797679;29;20035;-80
2023/01/23 05:18:48;;;;;;;2.15;1.00;;;;;;;16.54;56.07;103759.03;4813056;29;20109;-80
2023/01/23 05:21:13;;;;;;;1.38;0.90;;;;;;;16.54;56.08;103759.91;4812617;29;20073;-79
2023/01/23 05:23:38;;;;;;;3.15;0.98;;;;;;;16.55;55.97;103760.78;4812674;29;20066;-80
2023/01/23 05:26:04;;;;;;;1.65;1.00;;;;;;;16.55;55.94;103759.09;4797391;29;20486;-79
2023/01/23 05:28:29;;;;;;;2.33;0.98;;;;;;;16.56;55.90;103755.66;4812136;29;20073;-80
2023/01/23 05:30:55;;;;;;;1.67;1.00;;;;;;;16.57;55.89;103751.34;4812419;29;20074;-79
2023/01/23 05:33:21;;;;;;;1.42;0.70;;;;;;;16.57;56.08;103748.75;4812581;29;20038;-79
2023/01/23 05:35:46;;;;;;;2.45;0.80;;;;;;;16.58;55.94;103751.41;4812510;29;20578;-81
2023/01/23 05:38:12;;;;;;;1.45;0.80;;;;;;;16.58;56.03;103754.00;4797769;29;20042;-80
2023/01/23 05:40:38;;;;;;;2.85;1.02;;;;;;;16.60;55.71;103754.09;4812781;29;20046;-79
2023/01/23 05:43:03;;;;;;;1.77;0.88;;;;;;;16.59;55.86;103755.81;4798490;29;20482;-80
2023/01/23 05:45:29;;;;;;;1.02;0.70;;;;;;;16.59;55.88;103753.22;4812761;29;20113;-79
2023/01/23 05:47:54;;;;;;;1.45;0.75;;;;;;;16.60;55.78;103754.97;4812734;29;20054;-79
2023/01/23 05:50:22;;;;;;;2.33;1.05;;;;;;;16.60;55.69;103757.56;4812562;29;20041;-80
2023/01/23 05:52:48;;;;;;;1.70;0.82;;;;;;;16.61;55.81;103756.75;4812689;29;20038;-80
2023/01/23 05:55:13;;;;;;;1.35;0.70;;;;;;;16.60;55.69;103747.16;4813157;29;20129;-79
2023/01/23 06:07:49;;;;;;;7.05;2.05;;;;;;;16.67;55.74;103754.38;4880977;29;20058;-81
2023/01/23 06:10:14;;;;;;;16.25;5.43;;;;;;;16.67;55.72;103759.59;4881614;29;20066;-80
2023/01/23 06:12:39;;;;;;;13.48;5.38;;;;;;;16.69;55.79;103758.78;4843275;29;20112;-79
2023/01/23 06:15:07;;;;;;;17.52;7.18;;;;;;;16.72;55.76;103766.69;4874259;29;20496;-79
2023/01/23 06:17:32;;;;;;;20.88;7.78;;;;;;;16.72;56.00;103766.69;4862055;29;20048;-79
2023/01/23 06:19:57;;;;;;;20.38;7.47;;;;;;;16.74;55.93;103772.84;4824377;29;20041;-78
2023/01/23 06:22:23;;;;;;;22.27;6.53;;;;;;;16.76;55.90;103766.88;4874311;29;20048;-79
2023/01/23 06:24:51;;;;;;;21.83;6.63;;;;;;;16.76;55.75;103768.59;4847210;29;20037;-79
2023/01/23 06:27:17;;;;;;;17.02;5.70;;;;;;;16.77;55.64;103772.97;4846214;29;20093;-79
2023/01/23 06:29:42;;;;;;;14.38;5.30;;;;;;;16.79;55.70;103774.81;4874908;29;20034;-79
2023/01/23 06:32:10;;;;;;;17.13;5.78;;;;;;;16.79;55.65;103785.22;4848045;29;20037;-80
2023/01/23 06:34:55;;;;;;;16.67;6.22;;;;;;;16.79;55.77;103773.94;4852690;29;20056;-80
2023/01/23 06:37:21;;;;;;;31.15;8.05;;;;;;;16.79;55.75;103780.00;4862978;29;20053;-79
2023/01/23 06:39:46;;;;;;;34.08;7.68;;;;;;;16.77;55.70;103780.78;4856087;29;20122;-78
2023/01/23 06:42:11;;;;;;;20.83;6.78;;;;;;;16.74;55.82;103781.53;4874215;29;20086;-79
2023/01/23 06:44:37;;;;;;;20.40;6.97;;;;;;;16.73;55.81;103782.38;4841171;29;20101;-79
2023/01/23 06:47:03;;;;;;;18.73;6.40;;;;;;;16.73;55.62;103786.69;4836115;29;20049;-79
2023/01/23 06:49:28;;;;;;;17.27;6.63;;;;;;;16.72;55.91;103784.88;4832577;29;20034;-79
2023/01/23 06:51:54;;;;;;;18.10;6.40;;;;;;;16.71;55.70;103777.94;4846924;29;20045;-78
2023/01/23 06:54:19;;;;;;;18.20;6.40;;;;;;;16.70;55.73;103782.25;4816623;29;20035;-78
2023/01/23 06:56:45;;;;;;;14.70;6.00;;;;;;;16.70;55.72;103784.84;4831514;29;20082;-78
2023/01/23 06:59:10;;;;;;;16.92;6.13;;;;;;;16.69;55.57;103783.06;4831791;29;20128;-79
2023/01/23 07:01:35;;;;;;;13.77;5.72;;;;;;;16.70;55.55;103783.94;4815901;29;20088;-80
2023/01/23 07:04:01;;;;;;;18.05;5.40;;;;;;;16.70;55.47;103789.13;4831481;29;20060;-79
2023/01/23 07:06:26;;;;;;;15.20;5.68;;;;;;;16.70;55.52;103786.53;4815926;29;20041;-79
2023/01/23 07:08:52;;;;;;;13.50;5.35;;;;;;;16.69;55.63;103793.47;4833653;29;20069;-81
2023/01/23 07:11:18;;;;;;;12.85;5.60;;;;;;;16.70;55.64;103803.06;4833213;29;20555;-80
2023/01/23 07:13:43;;;;;;;9.98;4.95;;;;;;;16.70;55.36;103808.25;4863633;29;20044;-80
2023/01/23 07:16:09;;;;;;;10.48;4.75;;;;;;;16.71;55.66;103812.63;4817916;29;20037;-80
2023/01/23 07:18:34;;;;;;;13.98;5.00;;;;;;;16.71;55.47;103815.22;4847222;29;20393;-79
2023/01/23 07:21:03;;;;;;;11.48;5.18;;;;;;;16.71;55.38;103810.00;4831811;29;20044;-79
2023/01/23 07:23:29;;;;;;;11.77;5.18;;;;;;;16.72;55.41;103819.56;4847129;29;20473;-78
2023/01/23 07:26:00;;;;;;;13.95;5.72;;;;;;;16.72;55.53;103819.56;4849256;29;20053;-79
2023/01/23 07:28:26;;;;;;;10.75;4.55;;;;;;;16.73;55.26;103820.50;4850601;29;20048;-79
2023/01/23 07:30:52;;;;;;;11.13;5.20;;;;;;;16.74;55.46;103825.72;4862523;29;20049;-79
2023/01/23 07:33:17;;;;;;;8.77;4.32;;;;;;;16.73;55.57;103825.69;4846216;29;20048;-79
2023/01/23 07:35:43;;;;;;;11.18;4.80;;;;;;;16.73;55.37;103820.50;4830541;29;20045;-79
2023/01/23 07:38:08;;;;;;;12.00;4.57;;;;;;;16.73;55.61;103823.97;4830700;29;20041;-80
2023/01/23 07:40:33;;;;;;;8.13;4.10;;;;;;;16.74;55.35;103825.72;4845982;29;20041;-79
2023/01/23 07:42:59;;;;;;;8.50;4.03;;;;;;;16.73;55.22;103825.69;4846594;29;20041;-79
2023/01/23 07:45:24;;;;;;;10.70;4.43;;;;;;;16.73;55.09;103829.16;4830651;29;20052;-79
2023/01/23 07:47:50;;;;;;;8.20;3.90;;;;;;;16.74;55.21;103830.06;4831145;29;20041;-79
2023/01/23 07:50:15;;;;;;;8.30;4.18;;;;;;;16.73;54.98;103828.28;4830748;29;20045;-79
2023/01/23 07:52:41;;;;;;;8.27;4.00;;;;;;;16.74;55.25;103830.06;4833864;29;20129;-79
2023/01/23 07:55:06;;;;;;;8.48;3.78;;;;;;;16.72;55.28;103835.19;4864178;29;20037;-79
2023/01/23 07:57:32;;;;;;;9.07;4.40;;;;;;;16.74;55.11;103843.94;4834108;29;20496;-79
2023/01/23 07:59:58;;;;;;;9.52;4.18;;;;;;;16.74;55.05;103848.25;4818737;29;20042;-79
2023/01/23 08:02:23;;;;;;;8.75;3.90;;;;;;;16.74;54.97;103853.47;4848978;29;20044;-79
2023/01/23 08:04:50;;;;;;;7.05;3.72;;;;;;;16.74;54.91;103859.53;4833670;29;20045;-79
2023/01/23 08:07:15;;;;;;;7.45;3.72;;;;;;;16.75;55.05;103863.06;4848570;29;20057;-79
2023/01/23 08:09:41;;;;;;;8.38;4.18;;;;;;;16.74;55.10;103856.94;4833632;29;20052;-79
2023/01/23 08:12:06;;;;;;;6.97;3.65;;;;;;;16.76;54.74;103864.81;4833248;29;20037;-79
2023/01/23 08:14:31;;;;;;;7.88;3.72;;;;;;;16.76;54.99;103870.00;4833870;29;20125;-79
2023/01/23 08:16:57;;;;;;;10.30;3.70;;;;;;;16.76;54.91;103865.69;4833349;29;20425;-79
2023/01/23 08:19:24;;;;;;;7.97;3.42;;;;;;;16.75;54.68;103866.53;4848456;29;20124;-79
2023/01/23 08:21:49;;;;;;;6.85;3.35;;;;;;;16.76;54.75;103872.63;4865532;29;20170;-79
2023/01/23 08:24:15;;;;;;;6.15;3.20;;;;;;;16.78;54.78;103876.16;4851470;29;20079;-79
2023/01/23 08:26:41;;;;;;;6.60;3.53;;;;;;;16.77;54.76;103879.59;4867282;29;20042;-80
2023/01/23 08:29:06;;;;;;;7.50;3.55;;;;;;;16.77;54.66;103884.81;4848567;29;20124;-79
2023/01/23 08:31:32;;;;;;;6.93;3.28;;;;;;;16.77;54.77;103877.00;4848766;29;20066;-79
2023/01/23 08:33:58;;;;;;;4.65;2.80;;;;;;;16.77;54.52;103890.88;4855270;29;20038;-79
2023/01/23 08:36:23;;;;;;;7.05;3.10;;;;;;;16.77;54.66;103884.81;4850832;29;20049;-79
2023/01/23 08:38:48;;;;;;;6.13;3.35;;;;;;;16.76;54.68;103883.91;4866766;29;20030;-79
2023/01/23 08:41:14;;;;;;;6.70;2.97;;;;;;;16.76;54.74;103891.69;4866874;29;20098;-79
2023/01/23 08:43:46;;;;;;;6.55;3.30;;;;;;;16.77;54.73;103890.88;4850884;29;20052;-79
2023/01/23 08:46:11;;;;;;;6.55;3.00;;;;;;;16.78;54.37;103896.97;4865581;29;20053;-79
2023/01/23 08:48:37;;;;;;;6.85;3.10;;;;;;;16.78;54.74;103899.56;4845027;29;20046;-79
2023/01/23 08:51:08;;;;;;;4.45;2.58;;;;;;;16.78;54.51;103905.66;4854407;29;20068;-79
2023/01/23 08:53:35;;;;;;;5.20;2.90;;;;;;;16.78;54.62;103896.97;4852643;29;20033;-79
2023/01/23 08:56:06;;;;;;;6.72;2.90;;;;;;;16.80;54.52;103908.38;4867555;29;20053;-79
2023/01/23 08:58:32;;;;;;;3.88;2.67;;;;;;;16.79;54.33;103914.38;4868141;29;20178;-79
2023/01/23 09:00:58;;;;;;;4.75;2.88;;;;;;;16.79;54.77;103909.19;4874607;29;20033;-79
2023/01/23 09:03:24;;;;;;;6.90;2.97;;;;;;;16.80;54.50;103913.56;4881508;29;20041;-80
2023/01/23 09:05:49;;;;;;;3.78;2.70;;;;;;;16.80;54.50;103919.66;4866261;29;20074;-80
2023/01/23 09:08:15;;;;;;;4.22;2.60;;;;;;;16.82;54.40;103919.72;4866304;29;20148;-80
2023/01/23 09:10:41;;;;;;;4.82;2.72;;;;;;;16.82;54.45;103914.53;4875228;29;20033;-80
2023/01/23 09:13:06;;;;;;;4.47;2.50;;;;;;;16.81;54.42;103918.84;4855306;29;20049;-79
2023/01/23 09:15:31;;;;;;;4.63;2.28;;;;;;;16.81;54.22;103916.25;4852094;29;20160;-79
2023/01/23 09:17:57;;;;;;;4.88;2.40;;;;;;;16.80;54.30;103911.84;4852247;29;20044;-79
2023/01/23 09:20:25;;;;;;;4.38;2.83;;;;;;;16.80;54.22;103922.25;4852200;29;20080;-79
2023/01/23 09:22:51;;;;;;;4.78;2.40;;;;;;;16.81;54.22;103911.03;4850971;29;20400;-79
2023/01/23 09:25:17;;;;;;;3.67;2.35;;;;;;;16.82;54.35;103915.41;4835800;29;20405;-79
2023/01/23 09:27:43;;;;;;;5.50;2.42;;;;;;;16.81;54.24;103913.66;4850307;29;20048;-79
2023/01/23 09:30:09;;;;;;;5.88;2.40;;;;;;;16.83;54.24;103913.69;4849985;29;20048;-79
2023/01/23 09:32:34;;;;;;;4.45;2.38;;;;;;;16.82;54.16;103917.13;4849786;29;20041;-79
2023/01/23 09:35:00;;;;;;;4.03;2.40;;;;;;;16.83;54.17;103913.69;4849701;29;20040;-79
2023/01/23 09:37:28;;;;;;;4.32;2.20;;;;;;;16.83;54.30;103911.09;4834325;29;20396;-79
2023/01/23 09:39:54;;;;;;;4.75;2.67;;;;;;;16.83;54.17;103913.69;4849136;29;20033;-79
2023/01/23 09:42:31;;;;;;;3.83;2.38;;;;;;;16.83;54.27;103912.00;4835427;29;20113;-79
2023/01/23 09:45:02;;;;;;;3.47;2.20;;;;;;;16.85;53.98;103917.25;4848610;29;20425;-79
2023/01/23 09:48:09;;;;;;;3.80;2.13;;;;;;;16.84;54.22;103913.75;4864234;29;20039;-79
2023/01/23 09:50:50;;;;;;;4.50;2.30;;;;;;;16.85;54.10;103920.75;4848417;29;20044;-79
2023/01/23 09:53:20;;;;;;;5.13;2.60;;;;;;;16.87;54.08;103923.41;4847934;29;20049;-79
2023/01/23 09:56:14;;;;;;;2.90;1.88;;;;;;;16.85;54.15;103917.25;4848517;29;20033;-79
2023/01/23 09:58:46;;;;;;;4.35;2.30;;;;;;;16.85;53.96;103915.56;4817663;29;20056;-79
2023/01/23 10:01:12;;;;;;;3.92;2.10;;;;;;;16.86;53.95;103914.72;4864494;29;20063;-79
2023/01/23 10:03:38;;;;;;;4.78;2.20;;;;;;;16.86;54.06;103909.50;4833206;29;20041;-79
2023/01/23 10:06:29;;;;;;;3.35;1.95;;;;;;;16.86;54.01;103906.91;4833396;29;20050;-78
2023/01/23 10:09:13;;;;;;;2.80;2.00;;;;;;;16.88;53.93;103909.59;4847741;29;20405;-79
2023/01/23 10:12:03;;;;;;;3.30;1.95;;;;;;;16.88;53.93;103909.59;4847750;29;20389;-79
2023/01/23 10:15:21;;;;;;;2.95;1.85;;;;;;;16.88;54.14;103900.91;4847640;29;20062;-78
2023/01/23 10:17:52;;;;;;;4.47;2.25;;;;;;;16.89;53.91;103902.66;4774839;30;20504;-79
2023/01/23 10:20:38;;;;;;;3.47;2.10;;;;;;;16.90;53.75;103904.44;4790105;29;20043;-79
2023/01/23 10:23:17;;;;;;;4.00;1.90;;;;;;;16.89;53.89;103894.88;4838434;29;20064;-79
2023/01/23 10:25:43;;;;;;;3.05;1.98;;;;;;;16.91;53.66;103896.69;4867025;29;20045;-79
2023/01/23 10:28:29;;;;;;;3.63;2.15;;;;;;;16.91;53.84;103891.50;4832121;29;20382;-81
2023/01/23 10:34:57;;;;;;;2.95;1.85;;;;;;;16.91;53.70;103912.31;4884786;29;20033;-82
2023/01/23 10:40:04;;;;;;;2.50;1.85;;;;;;;16.93;53.68;103910.66;4989205;23;20053;-86
2023/01/23 11:18:46;;;;;;;2.83;1.50;;;;;;;16.98;53.38;103919.53;4860804;29;20052;-86
2023/01/23 11:26:33;;;;;;;2.45;1.70;;;;;;;17.00;53.29;103914.41;5087002;23;20053;-86
2023/01/23 11:29:02;;;;;;;2.45;1.50;;;;;;;16.99;53.35;103913.53;4867429;29;20037;-85
2023/01/23 11:36:58;;;;;;;2.50;1.70;;;;;;;17.01;53.06;103911.88;5794203;23;22117;-85
2023/01/23 11:39:44;;;;;;;2.35;1.40;;;;;;;17.01;53.29;103917.09;4866806;29;20042;-85
2023/01/23 13:13:44;;;;;;;1.80;1.10;;;;;;;17.25;52.61;103900.72;4864823;29;20097;-79
2023/01/23 13:16:11;;;;;;;1.60;1.20;;;;;;;17.24;52.56;103902.41;4847929;29;20033;-79
2023/01/23 13:27:48;;;;;;;1.73;1.20;;;;;;;17.24;52.30;103878.09;4864619;29;20508;-79
2023/01/23 13:32:48;;;;;;;1.83;1.13;;;;;;;17.22;52.34;103861.53;4864432;29;20078;-79
2023/01/23 13:35:54;;;;;;;1.70;0.90;;;;;;;17.23;52.60;103856.38;4847726;29;20041;-79
2023/01/23 13:38:20;;;;;;;1.40;0.90;;;;;;;17.24;52.52;103854.66;4847984;29;20045;-80
2023/01/23 13:41:03;;;;;;;1.40;0.90;;;;;;;17.23;52.48;103845.97;4847933;29;20046;-79
2023/01/23 13:43:53;;;;;;;1.40;1.00;;;;;;;17.23;52.19;103840.78;4847489;29;20070;-79
2023/01/23 13:46:37;;;;;;;1.67;1.10;;;;;;;17.24;52.41;103833.84;4836513;29;20089;-79
2023/01/23 13:56:37;;;;;;;1.95;1.10;;;;;;;17.23;52.36;103845.09;4864477;29;20467;-79
2023/01/23 13:57:32;;;;;;;1.50;1.00;;;;;;;17.24;52.41;103854.66;4865292;29;20063;-79
2023/01/23 13:59:58;;;;;;;1.52;1.05;;;;;;;17.23;52.27;103848.59;4848848;29;20061;-79
2023/01/23 14:05:21;;;;;;;1.30;0.98;;;;;;;17.24;52.13;103858.16;4865636;29;20125;-79
2023/01/23 14:07:52;;;;;;;1.52;1.10;;;;;;;17.24;52.19;103859.88;4864680;29;20042;-80
2023/01/23 14:10:35;;;;;;;1.42;0.90;;;;;;;17.24;52.21;103865.06;4832791;29;20054;-80
2023/01/23 14:13:11;;;;;;;1.30;0.85;;;;;;;17.23;52.38;103866.81;4855900;29;20041;-80
2023/01/23 14:18:32;;;;;;;;;;;;;;;17.25;52.24;103864.28;4870898;29;20068;-80
2023/01/23 14:21:03;;;;;;;1.45;1.05;;;;;;;17.25;52.18;103867.75;4869638;29;19968;-80
2023/01/23 14:23:34;;;;;;;1.25;0.77;;;;;;;17.26;52.29;103863.44;4850754;29;20037;-80
2023/01/23 14:26:00;;;;;;;1.02;0.73;;;;;;;17.25;52.04;103867.75;4849597;29;20033;-80
2023/01/23 14:28:26;;;;;;;0.73;0.60;;;;;;;17.27;52.21;103870.44;4849040;29;20405;-80
2023/01/23 14:31:02;;;;;;;1.20;1.00;;;;;;;17.26;52.00;103869.50;4864029;29;20048;-79
2023/01/23 14:33:28;;;;;;;1.15;0.88;;;;;;;17.26;52.25;103872.13;4847526;29;20457;-80
2023/01/23 14:35:57;;;;;;;1.40;0.80;;;;;;;17.26;52.13;103874.72;4863929;29;20034;-80
2023/01/23 14:38:30;;;;;;;1.27;0.80;;;;;;;17.27;52.13;103870.44;4833117;29;20511;-79
2023/01/23 14:41:06;;;;;;;0.98;0.80;;;;;;;17.27;52.01;103871.31;4848002;29;20038;-79
2023/01/23 14:43:34;;;;;;;1.15;0.77;;;;;;;17.28;51.95;103874.78;4821748;29;20041;-80
2023/01/23 14:46:06;;;;;;;1.42;0.70;;;;;;;17.27;51.78;103873.91;4867336;29;20021;-80
2023/01/23 14:48:37;;;;;;;1.10;0.90;;;;;;;17.28;51.97;103875.66;4867574;29;20033;-79
2023/01/23 14:51:17;;;;;;;1.30;0.93;;;;;;;17.27;52.06;103863.50;4858526;29;20045;-79
2023/01/23 14:53:50;;;;;;;1.13;0.80;;;;;;;17.27;51.50;103867.81;4864850;29;20048;-80
2023/01/23 14:56:15;;;;;;;1.13;0.80;;;;;;;17.27;51.89;103873.03;4858266;29;20040;-80
2023/01/23 14:58:41;;;;;;;1.08;0.85;;;;;;;17.27;51.74;103866.09;4851655;29;20622;-80
2023/01/23 15:01:09;;;;;;;1.08;0.70;;;;;;;17.28;51.75;103869.59;4852417;29;20052;-79
2023/01/23 15:03:44;;;;;;;0.85;0.68;;;;;;;17.27;51.96;103857.41;4853817;29;20068;-80
2023/01/23 15:06:20;;;;;;;1.45;0.75;;;;;;;17.28;51.77;103856.56;4853653;29;20042;-80
2023/01/23 15:08:47;;;;;;;1.02;0.80;;;;;;;17.28;51.67;103859.16;4853528;29;20098;-79
2023/01/23 15:11:13;;;;;;;0.90;0.80;;;;;;;17.29;51.73;103863.56;4853919;29;20062;-79
2023/01/23 15:13:42;;;;;;;1.08;0.80;;;;;;;17.28;51.59;103861.78;4858301;29;20392;-80
2023/01/23 15:16:36;;;;;;;1.08;0.80;;;;;;;17.29;51.91;103860.97;4857022;29;20061;-79
2023/01/23 15:19:21;;;;;;;1.20;1.00;;;;;;;17.28;51.82;103867.84;4847828;29;20404;-79